EZS9901 EHAM-LFSB
Flight info
| Callsign | EZS9901 |
|---|---|
| Flight time | 0h 52m |
| Altitude | 35000 |
| Route | LOPIK4V LOPIK N852 SUTAL DCT GTQ DCT POGOL DCT LASAT A242 ARPUS ARPUS9K |
| Aircraft | A320/M-SDE3FGHIRWY/LB1 |
Departure
| Time | 2026-05-07 14:40 |
|---|---|
| Airport | Amsterdam Airport Schiphol (EHAM) |
Arrival
| Time | 2026-05-07 15:33 |
|---|---|
| Airport | EuroAirport Basel–Mulhouse–Freiburg (LFSB) |
| Time | Latitude | Longitude | Altitude | Speed | Heading |
|---|---|---|---|---|---|
| 2026-05-07 14:16 | 52.31045 | 4.75519 | -1 ft | 0 kts | 148° |
| 2026-05-07 14:27 | 52.31046 | 4.75518 | -1 ft | 2 kts | 148° |
| 2026-05-07 14:28 | 52.31068 | 4.75497 | -1 ft | 4 kts | 150° |
| 2026-05-07 14:28 | 52.31084 | 4.75478 | -1 ft | 4 kts | 82° |
| 2026-05-07 14:28 | 52.31078 | 4.75445 | -1 ft | 2 kts | 72° |
| 2026-05-07 14:28 | 52.31078 | 4.75443 | -1 ft | 0 kts | 72° |
| 2026-05-07 14:31 | 52.31081 | 4.75452 | -1 ft | 4 kts | 59° |
| 2026-05-07 14:31 | 52.31142 | 4.75497 | -1 ft | 15 kts | 359° |
| 2026-05-07 14:31 | 52.31275 | 4.75484 | -1 ft | 21 kts | 357° |
| 2026-05-07 14:31 | 52.31370 | 4.75476 | -1 ft | 0 kts | 356° |
| 2026-05-07 14:32 | 52.31441 | 4.75469 | -1 ft | 20 kts | 356° |
| 2026-05-07 14:33 | 52.31509 | 4.75392 | -1 ft | 7 kts | 258° |
| 2026-05-07 14:33 | 52.31504 | 4.75234 | -1 ft | 24 kts | 267° |
| 2026-05-07 14:33 | 52.31493 | 4.74897 | -1 ft | 32 kts | 266° |
| 2026-05-07 14:33 | 52.31502 | 4.74689 | 0 ft | 8 kts | 306° |
| 2026-05-07 14:34 | 52.31515 | 4.74674 | -1 ft | 0 kts | 333° |
| 2026-05-07 14:34 | 52.31516 | 4.74673 | -1 ft | 0 kts | 334° |
| 2026-05-07 14:38 | 52.31525 | 4.74668 | -1 ft | 7 kts | 343° |
| 2026-05-07 14:38 | 52.31585 | 4.74660 | -1 ft | 10 kts | 357° |
| 2026-05-07 14:38 | 52.31619 | 4.74666 | 0 ft | 2 kts | 16° |
| 2026-05-07 14:38 | 52.31664 | 4.74732 | 0 ft | 12 kts | 71° |
| 2026-05-07 14:39 | 52.31668 | 4.74792 | -1 ft | 0 kts | 86° |
| 2026-05-07 14:40 | 52.31676 | 4.74985 | -3 ft | 60 kts | 86° |
| 2026-05-07 14:40 | 52.31721 | 4.76313 | 29 ft | 165 kts | 85° |
| 2026-05-07 14:40 | 52.31778 | 4.78265 | 1068 ft | 179 kts | 88° |
| 2026-05-07 14:40 | 52.31311 | 4.80189 | 2025 ft | 197 kts | 133° |
| 2026-05-07 14:41 | 52.30159 | 4.81477 | 2994 ft | 203 kts | 150° |
| 2026-05-07 14:41 | 52.28897 | 4.82504 | 4001 ft | 203 kts | 153° |
| 2026-05-07 14:41 | 52.27571 | 4.83523 | 4714 ft | 223 kts | 155° |
| 2026-05-07 14:41 | 52.26613 | 4.84255 | 5259 ft | 231 kts | 154° |
| 2026-05-07 14:42 | 52.24709 | 4.86106 | 5977 ft | 256 kts | 139° |
| 2026-05-07 14:42 | 52.23349 | 4.88069 | 6113 ft | 264 kts | 141° |
| 2026-05-07 14:42 | 52.21903 | 4.89958 | 6331 ft | 272 kts | 143° |
| 2026-05-07 14:42 | 52.20395 | 4.91850 | 7555 ft | 272 kts | 143° |
| 2026-05-07 14:43 | 52.18863 | 4.93768 | 8814 ft | 277 kts | 144° |
| 2026-05-07 14:43 | 52.17317 | 4.95717 | 10001 ft | 283 kts | 143° |
| 2026-05-07 14:43 | 52.15715 | 4.97751 | 10735 ft | 305 kts | 143° |
| 2026-05-07 14:43 | 52.13977 | 4.99971 | 11260 ft | 330 kts | 142° |
| 2026-05-07 14:44 | 52.12118 | 5.02364 | 11870 ft | 348 kts | 142° |
| 2026-05-07 14:44 | 52.10121 | 5.04672 | 12674 ft | 357 kts | 150° |
| 2026-05-07 14:44 | 52.07855 | 5.06346 | 13017 ft | 358 kts | 163° |
| 2026-05-07 14:44 | 52.05451 | 5.07424 | 13412 ft | 359 kts | 166° |
| 2026-05-07 14:45 | 52.03059 | 5.08474 | 13818 ft | 362 kts | 166° |
| 2026-05-07 14:45 | 52.00621 | 5.09551 | 14186 ft | 364 kts | 166° |
| 2026-05-07 14:45 | 51.98169 | 5.10639 | 14549 ft | 366 kts | 165° |
| 2026-05-07 14:45 | 51.95699 | 5.11739 | 15051 ft | 371 kts | 166° |
| 2026-05-07 14:46 | 51.93200 | 5.12856 | 15983 ft | 374 kts | 165° |
| 2026-05-07 14:46 | 51.90668 | 5.13988 | 16852 ft | 379 kts | 165° |
| 2026-05-07 14:46 | 51.88110 | 5.15127 | 17706 ft | 384 kts | 166° |
| 2026-05-07 14:46 | 51.85516 | 5.16276 | 18537 ft | 389 kts | 166° |
| 2026-05-07 14:47 | 51.82891 | 5.17438 | 19291 ft | 393 kts | 166° |
| 2026-05-07 14:47 | 51.80232 | 5.18612 | 20059 ft | 397 kts | 166° |
| 2026-05-07 14:47 | 51.77552 | 5.19794 | 20814 ft | 401 kts | 166° |
| 2026-05-07 14:47 | 51.74851 | 5.20985 | 21561 ft | 405 kts | 166° |
| 2026-05-07 14:48 | 51.72118 | 5.22191 | 22276 ft | 409 kts | 166° |
| 2026-05-07 14:48 | 51.69361 | 5.23407 | 22981 ft | 412 kts | 166° |
| 2026-05-07 14:48 | 51.66582 | 5.24632 | 23641 ft | 416 kts | 166° |
| 2026-05-07 14:48 | 51.63775 | 5.25870 | 24191 ft | 419 kts | 166° |
| 2026-05-07 14:49 | 51.61909 | 5.26693 | 24539 ft | 421 kts | 166° |
| 2026-05-07 14:49 | 51.59074 | 5.27942 | 24948 ft | 424 kts | 166° |
| 2026-05-07 14:49 | 51.56220 | 5.29194 | 25058 ft | 424 kts | 166° |
| 2026-05-07 14:49 | 51.53373 | 5.30441 | 25083 ft | 424 kts | 166° |
| 2026-05-07 14:50 | 51.50526 | 5.31681 | 25185 ft | 427 kts | 166° |
| 2026-05-07 14:50 | 51.47649 | 5.32931 | 25750 ft | 429 kts | 166° |
| 2026-05-07 14:50 | 51.44766 | 5.34187 | 26268 ft | 431 kts | 166° |
| 2026-05-07 14:50 | 51.41853 | 5.35456 | 26759 ft | 435 kts | 166° |
| 2026-05-07 14:51 | 51.38928 | 5.36726 | 27225 ft | 438 kts | 167° |
| 2026-05-07 14:51 | 51.35977 | 5.38004 | 27697 ft | 441 kts | 167° |
| 2026-05-07 14:51 | 51.33008 | 5.39293 | 28151 ft | 443 kts | 167° |
| 2026-05-07 14:51 | 51.30022 | 5.40590 | 28593 ft | 446 kts | 167° |
| 2026-05-07 14:52 | 51.27018 | 5.41896 | 29004 ft | 449 kts | 167° |
| 2026-05-07 14:52 | 51.23986 | 5.43127 | 29391 ft | 451 kts | 168° |
| 2026-05-07 14:52 | 51.20912 | 5.44217 | 29763 ft | 453 kts | 170° |
| 2026-05-07 14:52 | 51.17817 | 5.45224 | 30089 ft | 455 kts | 170° |
| 2026-05-07 14:53 | 51.14712 | 5.46325 | 30343 ft | 458 kts | 168° |
| 2026-05-07 14:53 | 51.11621 | 5.47572 | 30634 ft | 459 kts | 167° |
| 2026-05-07 14:53 | 51.08543 | 5.48933 | 30992 ft | 458 kts | 166° |
| 2026-05-07 14:53 | 51.05485 | 5.50342 | 31323 ft | 458 kts | 166° |
| 2026-05-07 14:54 | 51.02425 | 5.51759 | 31679 ft | 457 kts | 166° |
| 2026-05-07 14:54 | 50.99363 | 5.53151 | 32027 ft | 457 kts | 166° |
| 2026-05-07 14:54 | 50.96305 | 5.54507 | 32389 ft | 456 kts | 167° |
| 2026-05-07 14:54 | 50.93240 | 5.55834 | 32753 ft | 456 kts | 167° |
| 2026-05-07 14:55 | 50.90179 | 5.57142 | 33131 ft | 455 kts | 167° |
| 2026-05-07 14:55 | 50.87121 | 5.58444 | 33517 ft | 455 kts | 167° |
| 2026-05-07 14:55 | 50.84064 | 5.59746 | 33901 ft | 454 kts | 167° |
| 2026-05-07 14:55 | 50.81014 | 5.61055 | 34257 ft | 454 kts | 167° |
| 2026-05-07 14:56 | 50.78012 | 5.62350 | 34580 ft | 453 kts | 167° |
| 2026-05-07 14:56 | 50.74967 | 5.63666 | 34854 ft | 454 kts | 167° |
| 2026-05-07 14:56 | 50.71915 | 5.64981 | 35013 ft | 455 kts | 167° |
| 2026-05-07 14:56 | 50.68866 | 5.66292 | 35059 ft | 454 kts | 167° |
| 2026-05-07 14:57 | 50.62782 | 5.68997 | 35061 ft | 454 kts | 166° |
| 2026-05-07 14:57 | 50.56739 | 5.71898 | 35065 ft | 454 kts | 163° |
| 2026-05-07 14:58 | 50.50805 | 5.75338 | 35068 ft | 455 kts | 160° |
| 2026-05-07 14:58 | 50.44910 | 5.78994 | 35057 ft | 455 kts | 161° |
| 2026-05-07 14:59 | 50.38994 | 5.82552 | 35059 ft | 455 kts | 161° |
| 2026-05-07 14:59 | 50.33059 | 5.85997 | 35061 ft | 455 kts | 162° |
| 2026-05-07 15:00 | 50.27126 | 5.89415 | 35041 ft | 455 kts | 162° |
| 2026-05-07 15:00 | 50.21187 | 5.92842 | 35041 ft | 455 kts | 162° |
| 2026-05-07 15:01 | 50.15244 | 5.96275 | 35043 ft | 455 kts | 161° |
| 2026-05-07 15:01 | 50.09300 | 5.99700 | 35040 ft | 456 kts | 162° |
| 2026-05-07 15:02 | 50.03351 | 6.03125 | 35025 ft | 456 kts | 162° |
| 2026-05-07 15:02 | 49.97397 | 6.06545 | 35028 ft | 456 kts | 162° |
| 2026-05-07 15:03 | 49.91440 | 6.09954 | 35031 ft | 456 kts | 162° |
| 2026-05-07 15:03 | 49.85485 | 6.13347 | 35036 ft | 456 kts | 161° |
| 2026-05-07 15:04 | 49.79613 | 6.17145 | 35027 ft | 458 kts | 158° |
| 2026-05-07 15:04 | 49.73820 | 6.21244 | 35036 ft | 458 kts | 157° |
| 2026-05-07 15:05 | 49.68011 | 6.25307 | 35040 ft | 458 kts | 158° |
| 2026-05-07 15:05 | 49.62172 | 6.29241 | 35041 ft | 458 kts | 159° |
| 2026-05-07 15:06 | 49.56285 | 6.33042 | 35022 ft | 459 kts | 159° |
| 2026-05-07 15:06 | 49.50372 | 6.36798 | 35030 ft | 460 kts | 159° |
| 2026-05-07 15:07 | 49.44459 | 6.40595 | 35032 ft | 461 kts | 159° |
| 2026-05-07 15:07 | 49.38619 | 6.44556 | 35032 ft | 462 kts | 158° |
| 2026-05-07 15:08 | 49.32758 | 6.48616 | 35025 ft | 462 kts | 158° |
| 2026-05-07 15:08 | 49.26882 | 6.52642 | 35030 ft | 462 kts | 158° |
| 2026-05-07 15:09 | 49.20995 | 6.56613 | 35037 ft | 462 kts | 158° |
| 2026-05-07 15:09 | 49.15100 | 6.60572 | 35040 ft | 462 kts | 158° |
| 2026-05-07 15:10 | 49.09210 | 6.64528 | 35034 ft | 463 kts | 158° |
| 2026-05-07 15:10 | 49.03311 | 6.68490 | 35036 ft | 463 kts | 158° |
| 2026-05-07 15:11 | 48.97171 | 6.71176 | 35038 ft | 458 kts | 175° |
| 2026-05-07 15:11 | 48.90829 | 6.71307 | 35040 ft | 455 kts | 184° |
| 2026-05-07 15:12 | 48.84493 | 6.71057 | 35030 ft | 455 kts | 184° |
| 2026-05-07 15:12 | 48.78157 | 6.70815 | 35035 ft | 455 kts | 184° |
| 2026-05-07 15:13 | 48.71823 | 6.70578 | 35038 ft | 455 kts | 184° |
| 2026-05-07 15:13 | 48.65493 | 6.70332 | 35038 ft | 455 kts | 184° |
| 2026-05-07 15:14 | 48.59159 | 6.70084 | 35036 ft | 455 kts | 184° |
| 2026-05-07 15:14 | 48.52829 | 6.69844 | 35033 ft | 455 kts | 184° |
| 2026-05-07 15:15 | 48.46547 | 6.69601 | 35036 ft | 455 kts | 184° |
| 2026-05-07 15:15 | 48.40224 | 6.69348 | 35030 ft | 455 kts | 184° |
| 2026-05-07 15:16 | 48.33902 | 6.69106 | 35031 ft | 455 kts | 184° |
| 2026-05-07 15:16 | 48.27573 | 6.68866 | 35032 ft | 455 kts | 184° |
| 2026-05-07 15:17 | 48.21246 | 6.68635 | 34798 ft | 454 kts | 185° |
| 2026-05-07 15:17 | 48.18077 | 6.68515 | 33546 ft | 459 kts | 185° |
| 2026-05-07 15:17 | 48.14860 | 6.68388 | 32062 ft | 464 kts | 184° |
| 2026-05-07 15:18 | 48.11619 | 6.68257 | 30631 ft | 468 kts | 184° |
| 2026-05-07 15:18 | 48.08358 | 6.68128 | 29002 ft | 468 kts | 184° |
| 2026-05-07 15:18 | 48.05136 | 6.68009 | 26842 ft | 459 kts | 183° |
| 2026-05-07 15:18 | 48.01970 | 6.67893 | 24809 ft | 452 kts | 183° |
| 2026-05-07 15:19 | 47.98874 | 6.67776 | 23619 ft | 433 kts | 183° |
| 2026-05-07 15:19 | 47.95966 | 6.67666 | 22875 ft | 405 kts | 183° |
| 2026-05-07 15:19 | 47.93131 | 6.67558 | 21980 ft | 408 kts | 183° |
| 2026-05-07 15:19 | 47.90295 | 6.67450 | 21119 ft | 405 kts | 183° |
| 2026-05-07 15:20 | 47.87490 | 6.67345 | 20287 ft | 402 kts | 183° |
| 2026-05-07 15:20 | 47.84703 | 6.67243 | 19480 ft | 399 kts | 183° |
| 2026-05-07 15:20 | 47.81938 | 6.67140 | 18709 ft | 396 kts | 183° |
| 2026-05-07 15:20 | 47.79197 | 6.67035 | 17881 ft | 393 kts | 183° |
| 2026-05-07 15:21 | 47.76465 | 6.66930 | 17047 ft | 391 kts | 183° |
| 2026-05-07 15:21 | 47.73758 | 6.66994 | 16284 ft | 389 kts | 174° |
| 2026-05-07 15:21 | 47.71173 | 6.68158 | 15528 ft | 390 kts | 155° |
| 2026-05-07 15:21 | 47.68980 | 6.70512 | 14722 ft | 392 kts | 136° |
| 2026-05-07 15:22 | 47.67442 | 6.73831 | 13982 ft | 393 kts | 116° |
| 2026-05-07 15:22 | 47.66720 | 6.77726 | 13120 ft | 393 kts | 97° |
| 2026-05-07 15:22 | 47.66514 | 6.81751 | 12268 ft | 390 kts | 95° |
| 2026-05-07 15:22 | 47.66327 | 6.85750 | 11372 ft | 387 kts | 95° |
| 2026-05-07 15:23 | 47.66142 | 6.89671 | 11027 ft | 371 kts | 95° |
| 2026-05-07 15:23 | 47.65964 | 6.93374 | 10899 ft | 349 kts | 96° |
| 2026-05-07 15:23 | 47.65793 | 6.96871 | 10774 ft | 331 kts | 96° |
| 2026-05-07 15:23 | 47.65628 | 7.00193 | 10652 ft | 315 kts | 96° |
| 2026-05-07 15:24 | 47.65470 | 7.03323 | 10531 ft | 302 kts | 96° |
| 2026-05-07 15:24 | 47.65315 | 7.06356 | 10403 ft | 289 kts | 96° |
| 2026-05-07 15:24 | 47.65164 | 7.09276 | 10277 ft | 278 kts | 96° |
| 2026-05-07 15:24 | 47.65016 | 7.12106 | 10036 ft | 272 kts | 96° |
| 2026-05-07 15:25 | 47.64874 | 7.14872 | 9880 ft | 268 kts | 96° |
| 2026-05-07 15:25 | 47.64737 | 7.17635 | 9559 ft | 268 kts | 95° |
| 2026-05-07 15:25 | 47.64604 | 7.20391 | 9170 ft | 268 kts | 95° |
| 2026-05-07 15:25 | 47.64472 | 7.23154 | 8798 ft | 267 kts | 95° |
| 2026-05-07 15:26 | 47.64343 | 7.25895 | 8385 ft | 267 kts | 95° |
| 2026-05-07 15:26 | 47.64214 | 7.28635 | 7973 ft | 266 kts | 95° |
| 2026-05-07 15:26 | 47.64083 | 7.31363 | 7580 ft | 265 kts | 95° |
| 2026-05-07 15:26 | 47.63949 | 7.34086 | 7183 ft | 264 kts | 95° |
| 2026-05-07 15:27 | 47.63815 | 7.36783 | 6770 ft | 259 kts | 95° |
| 2026-05-07 15:27 | 47.63684 | 7.39378 | 6385 ft | 246 kts | 95° |
| 2026-05-07 15:27 | 47.63559 | 7.41842 | 6013 ft | 234 kts | 95° |
| 2026-05-07 15:27 | 47.63438 | 7.44200 | 5667 ft | 225 kts | 94° |
| 2026-05-07 15:28 | 47.63322 | 7.46470 | 5377 ft | 212 kts | 94° |
| 2026-05-07 15:28 | 47.63369 | 7.48519 | 5086 ft | 191 kts | 81° |
| 2026-05-07 15:28 | 47.63529 | 7.50451 | 4797 ft | 187 kts | 83° |
| 2026-05-07 15:28 | 47.63658 | 7.52359 | 4530 ft | 185 kts | 83° |
| 2026-05-07 15:29 | 47.63769 | 7.54248 | 4201 ft | 184 kts | 84° |
| 2026-05-07 15:29 | 47.63865 | 7.56166 | 3613 ft | 186 kts | 84° |
| 2026-05-07 15:29 | 47.63941 | 7.58051 | 3156 ft | 181 kts | 85° |
| 2026-05-07 15:29 | 47.63996 | 7.59918 | 2857 ft | 181 kts | 85° |
| 2026-05-07 15:30 | 47.63689 | 7.61620 | 2765 ft | 161 kts | 128° |
| 2026-05-07 15:30 | 47.62817 | 7.62459 | 2549 ft | 150 kts | 159° |
| 2026-05-07 15:30 | 47.61808 | 7.62807 | 2249 ft | 145 kts | 179° |
| 2026-05-07 15:30 | 47.60830 | 7.62690 | 1990 ft | 137 kts | 198° |
| 2026-05-07 15:31 | 47.60116 | 7.61952 | 1761 ft | 124 kts | 252° |
| 2026-05-07 15:31 | 47.60039 | 7.61127 | 1764 ft | 120 kts | 273° |
| 2026-05-07 15:31 | 47.60029 | 7.59886 | 1708 ft | 122 kts | 271° |
| 2026-05-07 15:31 | 47.59793 | 7.58253 | 1532 ft | 124 kts | 258° |
| 2026-05-07 15:32 | 47.59620 | 7.57019 | 1395 ft | 122 kts | 260° |
| 2026-05-07 15:32 | 47.59442 | 7.55799 | 1239 ft | 122 kts | 257° |
| 2026-05-07 15:32 | 47.59308 | 7.54986 | 1097 ft | 118 kts | 259° |
| 2026-05-07 15:32 | 47.59121 | 7.53781 | 923 ft | 120 kts | 262° |
| 2026-05-07 15:33 | 47.58955 | 7.52703 | 894 ft | 79 kts | 257° |
| 2026-05-07 15:33 | 47.58883 | 7.52265 | 894 ft | 23 kts | 256° |
| 2026-05-07 15:33 | 47.58850 | 7.52053 | 894 ft | 23 kts | 257° |
| 2026-05-07 15:33 | 47.58814 | 7.51807 | 890 ft | 24 kts | 258° |
| 2026-05-07 15:34 | 47.58877 | 7.51682 | 892 ft | 17 kts | 347° |
| 2026-05-07 15:34 | 47.58987 | 7.51733 | 893 ft | 19 kts | 45° |
| 2026-05-07 15:34 | 47.59089 | 7.51885 | 894 ft | 23 kts | 45° |
| 2026-05-07 15:34 | 47.59211 | 7.52066 | 894 ft | 27 kts | 45° |
| 2026-05-07 15:35 | 47.59314 | 7.52312 | 894 ft | 30 kts | 65° |
| 2026-05-07 15:35 | 47.59402 | 7.52589 | 896 ft | 29 kts | 64° |
| 2026-05-07 15:35 | 47.59472 | 7.52806 | 895 ft | 21 kts | 63° |
| 2026-05-07 15:35 | 47.59567 | 7.52814 | 894 ft | 17 kts | 339° |
| 2026-05-07 15:36 | 47.59645 | 7.52930 | 894 ft | 14 kts | 65° |
| 2026-05-07 15:36 | 47.59710 | 7.53059 | 894 ft | 17 kts | 6° |
| 2026-05-07 15:36 | 47.59786 | 7.53069 | 893 ft | 2 kts | 323° |
| 2026-05-07 15:36 | 47.59782 | 7.53060 | 893 ft | 1 kts | 236° |
| 2026-05-07 15:37 | 47.59780 | 7.53058 | 893 ft | 0 kts | 226° |
| 2026-05-07 15:37 | 47.59776 | 7.53040 | 893 ft | 3 kts | 268° |
| 2026-05-07 15:38 | 47.59811 | 7.52985 | 893 ft | 11 kts | 315° |
| 2026-05-07 15:38 | 47.59828 | 7.52959 | 893 ft | 1 kts | 315° |
| 2026-05-07 15:38 | 47.59829 | 7.52959 | 893 ft | 0 kts | 315° |